Santa Fe, Illinois
Current Conditions -  °F | °C
As of 8:55 PM on Monday 22 Dec 2014 (Local Time) from KENL Reporting Station
Light Rain Light Rain  
Wind Chill: 45°   Ceiling: 500
Heat Index: 49°   Visibility: 7mi
Dew Point: 47°   Wind: 13mph
Humidity: 92%   Direction: 170°S
Pressure: 29.57"   Gusts: NA
Location:  38.5271°N, 89.4497°W
Report Text: KENL 230255Z AUTO 17011KT 7SM -RA OVC005 10/09 A2957 RMK AO2 P0002 60009 T00970085
Loading
Personal Weather Stations






























Interactive Weather Map New forecast layout! Learn more

10-Day Weather Forecast

Advertisements
Track Severe Weather on mobile